sensor_id;sensor_type;location;lat;lon;timestamp;P1;durP1;ratioP1;P2;durP2;ratioP2
6785;SDS011;3430;51.192;6.048;2023-08-30T00:01:12;5.03;;;3.00;;
6785;SDS011;3430;51.192;6.048;2023-08-30T00:03:38;3.33;;;2.30;;
6785;SDS011;3430;51.192;6.048;2023-08-30T00:06:06;5.80;;;2.63;;
6785;SDS011;3430;51.192;6.048;2023-08-30T00:08:37;3.33;;;2.60;;
6785;SDS011;3430;51.192;6.048;2023-08-30T00:11:08;5.23;;;2.93;;
6785;SDS011;3430;51.192;6.048;2023-08-30T00:13:33;2.63;;;2.30;;
6785;SDS011;3430;51.192;6.048;2023-08-30T00:15:59;2.87;;;2.57;;
6785;SDS011;3430;51.192;6.048;2023-08-30T00:18:27;2.83;;;2.57;;
6785;SDS011;3430;51.192;6.048;2023-08-30T00:20:56;3.57;;;2.37;;
6785;SDS011;3430;51.192;6.048;2023-08-30T00:23:22;2.87;;;2.57;;
6785;SDS011;3430;51.192;6.048;2023-08-30T00:25:47;2.57;;;2.37;;
6785;SDS011;3430;51.192;6.048;2023-08-30T00:28:13;3.80;;;2.80;;
6785;SDS011;3430;51.192;6.048;2023-08-30T00:30:39;3.63;;;2.67;;
6785;SDS011;3430;51.192;6.048;2023-08-30T00:33:05;2.57;;;2.37;;
6785;SDS011;3430;51.192;6.048;2023-08-30T00:35:31;2.77;;;2.30;;
6785;SDS011;3430;51.192;6.048;2023-08-30T00:37:56;2.60;;;2.40;;
6785;SDS011;3430;51.192;6.048;2023-08-30T00:40:24;3.57;;;2.90;;
6785;SDS011;3430;51.192;6.048;2023-08-30T00:42:51;2.83;;;2.63;;
6785;SDS011;3430;51.192;6.048;2023-08-30T00:45:18;2.67;;;2.37;;
6785;SDS011;3430;51.192;6.048;2023-08-30T00:47:44;3.33;;;2.07;;
6785;SDS011;3430;51.192;6.048;2023-08-30T00:50:09;2.60;;;2.40;;
6785;SDS011;3430;51.192;6.048;2023-08-30T00:52:35;4.43;;;2.40;;
6785;SDS011;3430;51.192;6.048;2023-08-30T00:55:01;4.00;;;2.53;;
6785;SDS011;3430;51.192;6.048;2023-08-30T00:57:26;4.07;;;2.80;;
6785;SDS011;3430;51.192;6.048;2023-08-30T00:59:52;3.03;;;2.27;;
6785;SDS011;3430;51.192;6.048;2023-08-30T01:02:18;3.53;;;2.50;;
6785;SDS011;3430;51.192;6.048;2023-08-30T01:04:44;2.73;;;2.47;;
6785;SDS011;3430;51.192;6.048;2023-08-30T01:07:10;3.20;;;2.40;;
6785;SDS011;3430;51.192;6.048;2023-08-30T01:09:35;2.33;;;2.13;;
6785;SDS011;3430;51.192;6.048;2023-08-30T01:12:09;2.50;;;2.30;;
6785;SDS011;3430;51.192;6.048;2023-08-30T01:15:12;2.70;;;2.50;;
6785;SDS011;3430;51.192;6.048;2023-08-30T01:17:30;2.87;;;2.53;;
6785;SDS011;3430;51.192;6.048;2023-08-30T01:20:01;2.60;;;2.40;;
6785;SDS011;3430;51.192;6.048;2023-08-30T01:25:23;4.07;;;2.70;;
6785;SDS011;3430;51.192;6.048;2023-08-30T01:27:43;2.73;;;2.13;;
6785;SDS011;3430;51.192;6.048;2023-08-30T01:30:11;2.47;;;2.20;;
6785;SDS011;3430;51.192;6.048;2023-08-30T01:32:37;3.10;;;2.80;;
6785;SDS011;3430;51.192;6.048;2023-08-30T01:35:03;2.77;;;2.43;;
6785;SDS011;3430;51.192;6.048;2023-08-30T01:37:33;2.37;;;2.17;;
6785;SDS011;3430;51.192;6.048;2023-08-30T01:40:00;2.80;;;2.60;;
6785;SDS011;3430;51.192;6.048;2023-08-30T01:42:26;2.47;;;2.27;;
6785;SDS011;3430;51.192;6.048;2023-08-30T01:44:52;10.23;;;2.50;;
6785;SDS011;3430;51.192;6.048;2023-08-30T01:47:20;2.93;;;2.70;;
6785;SDS011;3430;51.192;6.048;2023-08-30T01:49:46;9.90;;;2.83;;
6785;SDS011;3430;51.192;6.048;2023-08-30T01:52:11;3.27;;;2.97;;
6785;SDS011;3430;51.192;6.048;2023-08-30T01:54:38;2.57;;;2.13;;
6785;SDS011;3430;51.192;6.048;2023-08-30T01:57:04;3.23;;;2.37;;
6785;SDS011;3430;51.192;6.048;2023-08-30T01:59:29;2.90;;;2.30;;
6785;SDS011;3430;51.192;6.048;2023-08-30T02:01:55;3.10;;;2.30;;
6785;SDS011;3430;51.192;6.048;2023-08-30T02:04:22;4.43;;;2.50;;
6785;SDS011;3430;51.192;6.048;2023-08-30T02:11:41;3.57;;;2.70;;
6785;SDS011;3430;51.192;6.048;2023-08-30T02:14:09;3.10;;;2.53;;
6785;SDS011;3430;51.192;6.048;2023-08-30T02:16:36;2.57;;;2.37;;
6785;SDS011;3430;51.192;6.048;2023-08-30T02:19:02;3.10;;;2.70;;
6785;SDS011;3430;51.192;6.048;2023-08-30T02:21:28;5.70;;;2.70;;
6785;SDS011;3430;51.192;6.048;2023-08-30T02:23:56;2.77;;;2.33;;
6785;SDS011;3430;51.192;6.048;2023-08-30T02:26:22;3.03;;;2.73;;
6785;SDS011;3430;51.192;6.048;2023-08-30T02:28:47;2.57;;;2.37;;
6785;SDS011;3430;51.192;6.048;2023-08-30T02:31:13;2.77;;;2.33;;
6785;SDS011;3430;51.192;6.048;2023-08-30T02:33:38;2.60;;;2.40;;
6785;SDS011;3430;51.192;6.048;2023-08-30T02:36:04;4.80;;;2.70;;
6785;SDS011;3430;51.192;6.048;2023-08-30T02:38:39;2.73;;;2.50;;
6785;SDS011;3430;51.192;6.048;2023-08-30T02:41:05;3.80;;;2.40;;
6785;SDS011;3430;51.192;6.048;2023-08-30T02:43:30;2.50;;;2.30;;
6785;SDS011;3430;51.192;6.048;2023-08-30T02:45:56;3.17;;;2.60;;
6785;SDS011;3430;51.192;6.048;2023-08-30T02:48:21;3.07;;;2.53;;
6785;SDS011;3430;51.192;6.048;2023-08-30T02:50:47;4.63;;;2.90;;
6785;SDS011;3430;51.192;6.048;2023-08-30T02:53:13;2.63;;;2.43;;
6785;SDS011;3430;51.192;6.048;2023-08-30T02:55:38;5.33;;;2.60;;
6785;SDS011;3430;51.192;6.048;2023-08-30T02:58:04;2.57;;;2.37;;
6785;SDS011;3430;51.192;6.048;2023-08-30T03:00:29;2.50;;;2.30;;
6785;SDS011;3430;51.192;6.048;2023-08-30T03:02:55;3.00;;;2.70;;
6785;SDS011;3430;51.192;6.048;2023-08-30T03:05:21;2.70;;;2.50;;
6785;SDS011;3430;51.192;6.048;2023-08-30T03:07:47;4.93;;;3.00;;
6785;SDS011;3430;51.192;6.048;2023-08-30T03:10:16;3.57;;;2.43;;
6785;SDS011;3430;51.192;6.048;2023-08-30T03:12:41;2.93;;;2.50;;
6785;SDS011;3430;51.192;6.048;2023-08-30T03:15:06;3.30;;;3.00;;
6785;SDS011;3430;51.192;6.048;2023-08-30T03:17:32;3.67;;;2.60;;
6785;SDS011;3430;51.192;6.048;2023-08-30T03:19:58;2.93;;;2.63;;
6785;SDS011;3430;51.192;6.048;2023-08-30T03:22:23;3.10;;;2.90;;
6785;SDS011;3430;51.192;6.048;2023-08-30T03:24:49;2.90;;;2.60;;
6785;SDS011;3430;51.192;6.048;2023-08-30T03:27:15;4.10;;;2.47;;
6785;SDS011;3430;51.192;6.048;2023-08-30T03:29:41;3.70;;;2.50;;
6785;SDS011;3430;51.192;6.048;2023-08-30T03:32:06;3.50;;;2.80;;
6785;SDS011;3430;51.192;6.048;2023-08-30T03:34:34;3.53;;;2.70;;
6785;SDS011;3430;51.192;6.048;2023-08-30T03:37:00;2.80;;;2.60;;
6785;SDS011;3430;51.192;6.048;2023-08-30T03:39:25;3.00;;;2.77;;
6785;SDS011;3430;51.192;6.048;2023-08-30T03:41:50;3.00;;;2.70;;
6785;SDS011;3430;51.192;6.048;2023-08-30T03:44:16;3.07;;;2.87;;
6785;SDS011;3430;51.192;6.048;2023-08-30T03:46:42;2.70;;;2.50;;
6785;SDS011;3430;51.192;6.048;2023-08-30T03:49:07;2.47;;;2.27;;
6785;SDS011;3430;51.192;6.048;2023-08-30T03:51:33;3.37;;;3.00;;
6785;SDS011;3430;51.192;6.048;2023-08-30T03:53:59;3.63;;;2.63;;
6785;SDS011;3430;51.192;6.048;2023-08-30T03:56:24;2.83;;;2.50;;
6785;SDS011;3430;51.192;6.048;2023-08-30T03:58:50;2.93;;;2.67;;
6785;SDS011;3430;51.192;6.048;2023-08-30T04:01:16;2.97;;;2.67;;
6785;SDS011;3430;51.192;6.048;2023-08-30T04:03:41;4.57;;;3.07;;
6785;SDS011;3430;51.192;6.048;2023-08-30T04:06:07;2.47;;;2.27;;
6785;SDS011;3430;51.192;6.048;2023-08-30T04:08:32;2.70;;;2.50;;
6785;SDS011;3430;51.192;6.048;2023-08-30T04:11:01;2.90;;;2.70;;
6785;SDS011;3430;51.192;6.048;2023-08-30T04:13:27;3.00;;;2.70;;
6785;SDS011;3430;51.192;6.048;2023-08-30T04:15:52;2.87;;;2.50;;
6785;SDS011;3430;51.192;6.048;2023-08-30T04:18:18;2.57;;;2.30;;
6785;SDS011;3430;51.192;6.048;2023-08-30T04:20:44;3.93;;;2.83;;
6785;SDS011;3430;51.192;6.048;2023-08-30T04:23:10;2.80;;;2.60;;
6785;SDS011;3430;51.192;6.048;2023-08-30T04:25:36;3.00;;;2.40;;
6785;SDS011;3430;51.192;6.048;2023-08-30T04:28:02;5.97;;;2.90;;
6785;SDS011;3430;51.192;6.048;2023-08-30T04:30:27;3.00;;;2.67;;
6785;SDS011;3430;51.192;6.048;2023-08-30T04:32:55;3.00;;;2.70;;
6785;SDS011;3430;51.192;6.048;2023-08-30T04:35:21;4.20;;;2.80;;
6785;SDS011;3430;51.192;6.048;2023-08-30T04:37:46;3.07;;;2.33;;
6785;SDS011;3430;51.192;6.048;2023-08-30T04:40:13;4.60;;;3.00;;
6785;SDS011;3430;51.192;6.048;2023-08-30T04:42:39;3.33;;;2.83;;
6785;SDS011;3430;51.192;6.048;2023-08-30T04:45:05;2.83;;;2.63;;
6785;SDS011;3430;51.192;6.048;2023-08-30T04:47:31;2.97;;;2.70;;
6785;SDS011;3430;51.192;6.048;2023-08-30T04:49:56;3.10;;;2.60;;
6785;SDS011;3430;51.192;6.048;2023-08-30T04:52:25;3.13;;;2.47;;
6785;SDS011;3430;51.192;6.048;2023-08-30T04:54:50;3.20;;;2.77;;
6785;SDS011;3430;51.192;6.048;2023-08-30T04:57:16;3.20;;;2.90;;
6785;SDS011;3430;51.192;6.048;2023-08-30T04:59:42;2.73;;;2.50;;
6785;SDS011;3430;51.192;6.048;2023-08-30T05:02:08;2.63;;;2.43;;
6785;SDS011;3430;51.192;6.048;2023-08-30T05:04:33;2.73;;;2.53;;
6785;SDS011;3430;51.192;6.048;2023-08-30T05:06:59;2.93;;;2.33;;
6785;SDS011;3430;51.192;6.048;2023-08-30T05:09:24;2.93;;;2.53;;
6785;SDS011;3430;51.192;6.048;2023-08-30T05:11:53;4.03;;;2.80;;
6785;SDS011;3430;51.192;6.048;2023-08-30T05:14:22;3.13;;;2.83;;
6785;SDS011;3430;51.192;6.048;2023-08-30T05:16:48;2.80;;;2.60;;
6785;SDS011;3430;51.192;6.048;2023-08-30T05:19:14;3.63;;;2.93;;
6785;SDS011;3430;51.192;6.048;2023-08-30T05:21:41;3.77;;;2.87;;
6785;SDS011;3430;51.192;6.048;2023-08-30T05:24:06;2.40;;;2.20;;
6785;SDS011;3430;51.192;6.048;2023-08-30T05:26:32;4.60;;;2.33;;
6785;SDS011;3430;51.192;6.048;2023-08-30T05:28:58;3.50;;;2.43;;
6785;SDS011;3430;51.192;6.048;2023-08-30T05:31:23;3.67;;;2.40;;
6785;SDS011;3430;51.192;6.048;2023-08-30T05:33:51;3.67;;;2.47;;
6785;SDS011;3430;51.192;6.048;2023-08-30T05:36:17;4.70;;;2.90;;
6785;SDS011;3430;51.192;6.048;2023-08-30T05:38:43;3.00;;;2.70;;
6785;SDS011;3430;51.192;6.048;2023-08-30T05:41:11;3.13;;;2.83;;
6785;SDS011;3430;51.192;6.048;2023-08-30T05:43:37;2.67;;;2.47;;
6785;SDS011;3430;51.192;6.048;2023-08-30T05:46:06;3.20;;;2.90;;
6785;SDS011;3430;51.192;6.048;2023-08-30T05:48:37;3.03;;;2.73;;
6785;SDS011;3430;51.192;6.048;2023-08-30T05:51:02;5.10;;;2.93;;
6785;SDS011;3430;51.192;6.048;2023-08-30T05:53:31;3.33;;;2.87;;
6785;SDS011;3430;51.192;6.048;2023-08-30T05:55:59;4.13;;;3.57;;
6785;SDS011;3430;51.192;6.048;2023-08-30T05:58:24;5.93;;;3.27;;
6785;SDS011;3430;51.192;6.048;2023-08-30T06:00:50;4.93;;;3.10;;
6785;SDS011;3430;51.192;6.048;2023-08-30T06:03:15;3.77;;;3.00;;
6785;SDS011;3430;51.192;6.048;2023-08-30T06:05:44;4.33;;;3.50;;
6785;SDS011;3430;51.192;6.048;2023-08-30T06:08:09;8.23;;;3.47;;
6785;SDS011;3430;51.192;6.048;2023-08-30T06:10:35;3.83;;;3.23;;
6785;SDS011;3430;51.192;6.048;2023-08-30T06:13:00;4.60;;;3.77;;
6785;SDS011;3430;51.192;6.048;2023-08-30T06:15:26;3.80;;;3.43;;
6785;SDS011;3430;51.192;6.048;2023-08-30T06:17:54;4.97;;;4.37;;
6785;SDS011;3430;51.192;6.048;2023-08-30T06:20:19;7.57;;;3.93;;
6785;SDS011;3430;51.192;6.048;2023-08-30T06:22:47;5.60;;;3.53;;
6785;SDS011;3430;51.192;6.048;2023-08-30T06:25:12;4.20;;;3.57;;
6785;SDS011;3430;51.192;6.048;2023-08-30T06:27:40;3.43;;;3.10;;
6785;SDS011;3430;51.192;6.048;2023-08-30T06:30:15;4.37;;;3.50;;
6785;SDS011;3430;51.192;6.048;2023-08-30T06:32:41;3.63;;;3.23;;
6785;SDS011;3430;51.192;6.048;2023-08-30T06:35:06;3.50;;;3.20;;
6785;SDS011;3430;51.192;6.048;2023-08-30T06:37:32;4.00;;;3.23;;
6785;SDS011;3430;51.192;6.048;2023-08-30T06:39:59;5.57;;;3.30;;
6785;SDS011;3430;51.192;6.048;2023-08-30T06:42:24;6.50;;;3.53;;
6785;SDS011;3430;51.192;6.048;2023-08-30T06:44:50;3.60;;;3.30;;
6785;SDS011;3430;51.192;6.048;2023-08-30T06:47:16;3.53;;;2.97;;
6785;SDS011;3430;51.192;6.048;2023-08-30T06:49:41;4.53;;;3.33;;
6785;SDS011;3430;51.192;6.048;2023-08-30T06:52:06;4.60;;;3.00;;
6785;SDS011;3430;51.192;6.048;2023-08-30T06:54:33;7.47;;;3.40;;
6785;SDS011;3430;51.192;6.048;2023-08-30T06:56:59;3.73;;;3.37;;
6785;SDS011;3430;51.192;6.048;2023-08-30T06:59:25;4.43;;;3.20;;
6785;SDS011;3430;51.192;6.048;2023-08-30T07:01:50;5.27;;;3.13;;
6785;SDS011;3430;51.192;6.048;2023-08-30T07:04:16;3.30;;;3.00;;
6785;SDS011;3430;51.192;6.048;2023-08-30T07:06:41;3.40;;;2.90;;
6785;SDS011;3430;51.192;6.048;2023-08-30T07:09:07;3.40;;;3.10;;
6785;SDS011;3430;51.192;6.048;2023-08-30T07:11:33;3.40;;;2.87;;
6785;SDS011;3430;51.192;6.048;2023-08-30T07:13:59;3.00;;;2.70;;
6785;SDS011;3430;51.192;6.048;2023-08-30T07:16:24;4.60;;;2.77;;
6785;SDS011;3430;51.192;6.048;2023-08-30T07:18:49;3.03;;;2.70;;
6785;SDS011;3430;51.192;6.048;2023-08-30T07:21:15;2.83;;;2.63;;
6785;SDS011;3430;51.192;6.048;2023-08-30T07:23:41;7.23;;;3.37;;
6785;SDS011;3430;51.192;6.048;2023-08-30T07:26:09;7.13;;;2.80;;
6785;SDS011;3430;51.192;6.048;2023-08-30T07:28:35;4.10;;;3.33;;
6785;SDS011;3430;51.192;6.048;2023-08-30T07:31:04;3.23;;;2.43;;
6785;SDS011;3430;51.192;6.048;2023-08-30T07:33:29;3.63;;;2.90;;
6785;SDS011;3430;51.192;6.048;2023-08-30T07:35:54;3.27;;;2.53;;
6785;SDS011;3430;51.192;6.048;2023-08-30T07:38:29;4.07;;;2.57;;
6785;SDS011;3430;51.192;6.048;2023-08-30T07:40:58;3.63;;;2.83;;
6785;SDS011;3430;51.192;6.048;2023-08-30T07:43:23;3.17;;;2.53;;
6785;SDS011;3430;51.192;6.048;2023-08-30T07:45:49;2.73;;;2.53;;
6785;SDS011;3430;51.192;6.048;2023-08-30T07:48:15;3.33;;;3.03;;
6785;SDS011;3430;51.192;6.048;2023-08-30T07:50:40;4.47;;;2.50;;
6785;SDS011;3430;51.192;6.048;2023-08-30T07:53:06;5.93;;;3.17;;
6785;SDS011;3430;51.192;6.048;2023-08-30T07:55:31;4.77;;;2.83;;
6785;SDS011;3430;51.192;6.048;2023-08-30T07:57:57;3.13;;;2.60;;
6785;SDS011;3430;51.192;6.048;2023-08-30T08:00:22;3.50;;;2.67;;
6785;SDS011;3430;51.192;6.048;2023-08-30T08:02:48;2.90;;;2.60;;
6785;SDS011;3430;51.192;6.048;2023-08-30T08:05:13;3.40;;;2.67;;
6785;SDS011;3430;51.192;6.048;2023-08-30T08:07:38;3.77;;;2.50;;
6785;SDS011;3430;51.192;6.048;2023-08-30T08:10:05;3.63;;;3.10;;
6785;SDS011;3430;51.192;6.048;2023-08-30T08:12:32;3.10;;;2.80;;
6785;SDS011;3430;51.192;6.048;2023-08-30T08:14:57;4.50;;;3.00;;
6785;SDS011;3430;51.192;6.048;2023-08-30T08:17:23;3.03;;;2.47;;
6785;SDS011;3430;51.192;6.048;2023-08-30T08:19:48;3.87;;;2.90;;
6785;SDS011;3430;51.192;6.048;2023-08-30T08:22:14;3.37;;;2.77;;
6785;SDS011;3430;51.192;6.048;2023-08-30T08:24:39;3.23;;;2.37;;
6785;SDS011;3430;51.192;6.048;2023-08-30T08:27:08;3.20;;;2.17;;
6785;SDS011;3430;51.192;6.048;2023-08-30T08:29:33;2.60;;;2.33;;
6785;SDS011;3430;51.192;6.048;2023-08-30T08:32:00;4.03;;;2.50;;
6785;SDS011;3430;51.192;6.048;2023-08-30T08:34:26;2.23;;;2.03;;
6785;SDS011;3430;51.192;6.048;2023-08-30T08:36:51;4.30;;;2.80;;
6785;SDS011;3430;51.192;6.048;2023-08-30T08:39:16;4.57;;;2.60;;
6785;SDS011;3430;51.192;6.048;2023-08-30T08:41:44;3.33;;;2.70;;
6785;SDS011;3430;51.192;6.048;2023-08-30T08:44:09;3.53;;;2.60;;
6785;SDS011;3430;51.192;6.048;2023-08-30T08:46:35;2.63;;;2.33;;
6785;SDS011;3430;51.192;6.048;2023-08-30T08:49:11;2.70;;;2.20;;
6785;SDS011;3430;51.192;6.048;2023-08-30T08:51:39;4.37;;;2.83;;
6785;SDS011;3430;51.192;6.048;2023-08-30T08:54:05;2.37;;;2.17;;
6785;SDS011;3430;51.192;6.048;2023-08-30T08:56:31;3.70;;;2.50;;
6785;SDS011;3430;51.192;6.048;2023-08-30T08:58:57;3.20;;;2.70;;
6785;SDS011;3430;51.192;6.048;2023-08-30T09:01:23;3.43;;;2.60;;
6785;SDS011;3430;51.192;6.048;2023-08-30T09:03:49;3.30;;;2.40;;
6785;SDS011;3430;51.192;6.048;2023-08-30T09:06:15;4.20;;;2.47;;
6785;SDS011;3430;51.192;6.048;2023-08-30T09:08:40;2.97;;;2.10;;
6785;SDS011;3430;51.192;6.048;2023-08-30T09:11:06;4.00;;;2.33;;
6785;SDS011;3430;51.192;6.048;2023-08-30T09:13:31;3.13;;;2.67;;
6785;SDS011;3430;51.192;6.048;2023-08-30T09:15:57;2.57;;;2.20;;
6785;SDS011;3430;51.192;6.048;2023-08-30T09:18:26;3.07;;;2.30;;
6785;SDS011;3430;51.192;6.048;2023-08-30T09:21:12;2.53;;;2.33;;
6785;SDS011;3430;51.192;6.048;2023-08-30T09:23:38;2.40;;;2.20;;
6785;SDS011;3430;51.192;6.048;2023-08-30T09:26:07;3.43;;;2.50;;
6785;SDS011;3430;51.192;6.048;2023-08-30T09:28:41;2.50;;;2.30;;
6785;SDS011;3430;51.192;6.048;2023-08-30T09:31:06;3.13;;;2.60;;
6785;SDS011;3430;51.192;6.048;2023-08-30T09:33:33;4.70;;;2.37;;
6785;SDS011;3430;51.192;6.048;2023-08-30T09:35:58;3.40;;;2.50;;
6785;SDS011;3430;51.192;6.048;2023-08-30T09:38:24;2.50;;;2.27;;
6785;SDS011;3430;51.192;6.048;2023-08-30T09:40:50;3.13;;;2.23;;
6785;SDS011;3430;51.192;6.048;2023-08-30T09:43:25;2.93;;;2.30;;
6785;SDS011;3430;51.192;6.048;2023-08-30T09:45:50;4.63;;;2.60;;
6785;SDS011;3430;51.192;6.048;2023-08-30T09:48:22;3.03;;;2.23;;
6785;SDS011;3430;51.192;6.048;2023-08-30T09:50:53;3.57;;;2.43;;
6785;SDS011;3430;51.192;6.048;2023-08-30T09:53:25;3.20;;;2.53;;
6785;SDS011;3430;51.192;6.048;2023-08-30T09:56:04;3.13;;;2.73;;
6785;SDS011;3430;51.192;6.048;2023-08-30T09:58:30;4.87;;;2.40;;
6785;SDS011;3430;51.192;6.048;2023-08-30T10:00:57;2.87;;;2.57;;
6785;SDS011;3430;51.192;6.048;2023-08-30T10:03:31;2.50;;;2.30;;
6785;SDS011;3430;51.192;6.048;2023-08-30T10:05:58;2.67;;;2.47;;
6785;SDS011;3430;51.192;6.048;2023-08-30T10:08:29;2.60;;;2.40;;
6785;SDS011;3430;51.192;6.048;2023-08-30T10:10:59;2.47;;;2.27;;
6785;SDS011;3430;51.192;6.048;2023-08-30T10:13:27;5.23;;;2.23;;
6785;SDS011;3430;51.192;6.048;2023-08-30T10:15:58;2.53;;;2.33;;
6785;SDS011;3430;51.192;6.048;2023-08-30T10:18:27;3.20;;;2.80;;
6785;SDS011;3430;51.192;6.048;2023-08-30T10:20:54;3.33;;;2.70;;
6785;SDS011;3430;51.192;6.048;2023-08-30T10:23:19;2.73;;;2.40;;
6785;SDS011;3430;51.192;6.048;2023-08-30T10:25:47;3.10;;;2.37;;
6785;SDS011;3430;51.192;6.048;2023-08-30T10:28:12;2.90;;;2.20;;
6785;SDS011;3430;51.192;6.048;2023-08-30T10:30:38;3.70;;;2.50;;
6785;SDS011;3430;51.192;6.048;2023-08-30T10:33:11;3.60;;;2.50;;
6785;SDS011;3430;51.192;6.048;2023-08-30T10:35:46;2.80;;;2.53;;
6785;SDS011;3430;51.192;6.048;2023-08-30T10:38:12;2.53;;;2.33;;
6785;SDS011;3430;51.192;6.048;2023-08-30T10:40:44;2.53;;;2.33;;
6785;SDS011;3430;51.192;6.048;2023-08-30T10:43:11;3.23;;;2.37;;
6785;SDS011;3430;51.192;6.048;2023-08-30T10:45:36;2.90;;;2.47;;
6785;SDS011;3430;51.192;6.048;2023-08-30T10:48:02;2.33;;;1.93;;
6785;SDS011;3430;51.192;6.048;2023-08-30T10:50:31;3.23;;;2.50;;
6785;SDS011;3430;51.192;6.048;2023-08-30T10:52:57;3.63;;;2.20;;
6785;SDS011;3430;51.192;6.048;2023-08-30T10:55:23;2.50;;;2.20;;
6785;SDS011;3430;51.192;6.048;2023-08-30T10:57:57;2.57;;;2.17;;
6785;SDS011;3430;51.192;6.048;2023-08-30T11:00:23;6.37;;;2.30;;
6785;SDS011;3430;51.192;6.048;2023-08-30T11:02:49;2.77;;;2.13;;
6785;SDS011;3430;51.192;6.048;2023-08-30T11:05:18;3.40;;;2.40;;
6785;SDS011;3430;51.192;6.048;2023-08-30T11:07:43;2.33;;;2.13;;
6785;SDS011;3430;51.192;6.048;2023-08-30T11:10:10;4.80;;;2.17;;
6785;SDS011;3430;51.192;6.048;2023-08-30T11:12:36;2.53;;;2.10;;
6785;SDS011;3430;51.192;6.048;2023-08-30T11:15:01;3.70;;;2.00;;
6785;SDS011;3430;51.192;6.048;2023-08-30T11:17:27;2.90;;;2.10;;
6785;SDS011;3430;51.192;6.048;2023-08-30T11:20:09;2.43;;;2.00;;
6785;SDS011;3430;51.192;6.048;2023-08-30T11:22:42;2.67;;;2.30;;
6785;SDS011;3430;51.192;6.048;2023-08-30T11:25:08;2.60;;;2.20;;
6785;SDS011;3430;51.192;6.048;2023-08-30T11:27:33;3.50;;;2.40;;
6785;SDS011;3430;51.192;6.048;2023-08-30T11:29:59;3.07;;;2.07;;
6785;SDS011;3430;51.192;6.048;2023-08-30T11:32:27;3.43;;;2.27;;
6785;SDS011;3430;51.192;6.048;2023-08-30T11:34:56;3.47;;;2.33;;
6785;SDS011;3430;51.192;6.048;2023-08-30T11:37:23;2.63;;;2.10;;
6785;SDS011;3430;51.192;6.048;2023-08-30T11:39:51;3.57;;;2.63;;
6785;SDS011;3430;51.192;6.048;2023-08-30T11:42:17;3.17;;;2.17;;
6785;SDS011;3430;51.192;6.048;2023-08-30T11:44:43;3.13;;;2.40;;
6785;SDS011;3430;51.192;6.048;2023-08-30T11:47:09;3.13;;;2.37;;
6785;SDS011;3430;51.192;6.048;2023-08-30T11:49:34;4.77;;;2.50;;
6785;SDS011;3430;51.192;6.048;2023-08-30T11:52:00;3.93;;;2.13;;
6785;SDS011;3430;51.192;6.048;2023-08-30T11:54:25;3.83;;;2.20;;
6785;SDS011;3430;51.192;6.048;2023-08-30T11:56:51;2.47;;;2.27;;
6785;SDS011;3430;51.192;6.048;2023-08-30T11:59:20;2.80;;;2.10;;
6785;SDS011;3430;51.192;6.048;2023-08-30T12:01:47;2.80;;;1.97;;
6785;SDS011;3430;51.192;6.048;2023-08-30T12:04:12;3.20;;;2.33;;
6785;SDS011;3430;51.192;6.048;2023-08-30T12:06:38;3.73;;;1.80;;
6785;SDS011;3430;51.192;6.048;2023-08-30T12:09:03;4.90;;;2.83;;
6785;SDS011;3430;51.192;6.048;2023-08-30T12:11:31;6.80;;;2.10;;
6785;SDS011;3430;51.192;6.048;2023-08-30T12:14:01;2.57;;;2.30;;
6785;SDS011;3430;51.192;6.048;2023-08-30T12:16:27;2.43;;;1.90;;
6785;SDS011;3430;51.192;6.048;2023-08-30T12:18:52;2.73;;;2.27;;
6785;SDS011;3430;51.192;6.048;2023-08-30T12:21:17;4.03;;;2.10;;
6785;SDS011;3430;51.192;6.048;2023-08-30T12:23:43;3.03;;;2.30;;
6785;SDS011;3430;51.192;6.048;2023-08-30T12:26:09;4.67;;;1.90;;
6785;SDS011;3430;51.192;6.048;2023-08-30T12:28:35;2.60;;;2.17;;
6785;SDS011;3430;51.192;6.048;2023-08-30T12:31:00;2.20;;;1.87;;
6785;SDS011;3430;51.192;6.048;2023-08-30T12:33:26;3.17;;;2.33;;
6785;SDS011;3430;51.192;6.048;2023-08-30T12:35:52;3.00;;;1.87;;
6785;SDS011;3430;51.192;6.048;2023-08-30T12:38:17;2.37;;;2.00;;
6785;SDS011;3430;51.192;6.048;2023-08-30T12:40:45;2.80;;;2.40;;
6785;SDS011;3430;51.192;6.048;2023-08-30T12:43:11;4.47;;;2.20;;
6785;SDS011;3430;51.192;6.048;2023-08-30T12:45:37;2.07;;;1.73;;
6785;SDS011;3430;51.192;6.048;2023-08-30T12:48:03;2.70;;;2.13;;
6785;SDS011;3430;51.192;6.048;2023-08-30T12:50:28;2.07;;;1.80;;
6785;SDS011;3430;51.192;6.048;2023-08-30T12:52:54;2.10;;;1.90;;
6785;SDS011;3430;51.192;6.048;2023-08-30T12:55:19;3.70;;;2.10;;
6785;SDS011;3430;51.192;6.048;2023-08-30T12:57:44;4.63;;;1.90;;
6785;SDS011;3430;51.192;6.048;2023-08-30T13:00:13;2.10;;;1.90;;
6785;SDS011;3430;51.192;6.048;2023-08-30T13:02:38;2.20;;;2.00;;
6785;SDS011;3430;51.192;6.048;2023-08-30T13:05:04;2.60;;;2.07;;
6785;SDS011;3430;51.192;6.048;2023-08-30T13:07:30;2.87;;;2.00;;
6785;SDS011;3430;51.192;6.048;2023-08-30T13:09:56;2.20;;;2.00;;
6785;SDS011;3430;51.192;6.048;2023-08-30T13:12:21;2.40;;;1.80;;
6785;SDS011;3430;51.192;6.048;2023-08-30T13:14:50;4.80;;;2.20;;
6785;SDS011;3430;51.192;6.048;2023-08-30T13:17:15;3.13;;;2.10;;
6785;SDS011;3430;51.192;6.048;2023-08-30T13:19:42;2.17;;;1.93;;
6785;SDS011;3430;51.192;6.048;2023-08-30T13:22:08;2.67;;;2.10;;
6785;SDS011;3430;51.192;6.048;2023-08-30T13:24:35;4.17;;;2.20;;
6785;SDS011;3430;51.192;6.048;2023-08-30T13:27:00;2.83;;;1.93;;
6785;SDS011;3430;51.192;6.048;2023-08-30T13:29:26;2.43;;;1.90;;
6785;SDS011;3430;51.192;6.048;2023-08-30T13:31:51;1.93;;;1.73;;
6785;SDS011;3430;51.192;6.048;2023-08-30T13:34:17;2.03;;;1.83;;
6785;SDS011;3430;51.192;6.048;2023-08-30T13:36:42;2.00;;;1.80;;
6785;SDS011;3430;51.192;6.048;2023-08-30T13:39:10;2.47;;;2.17;;
6785;SDS011;3430;51.192;6.048;2023-08-30T13:41:36;2.97;;;2.30;;
6785;SDS011;3430;51.192;6.048;2023-08-30T13:44:01;2.40;;;1.83;;
6785;SDS011;3430;51.192;6.048;2023-08-30T13:46:29;2.40;;;2.20;;
6785;SDS011;3430;51.192;6.048;2023-08-30T13:48:54;2.07;;;1.87;;
6785;SDS011;3430;51.192;6.048;2023-08-30T13:51:22;5.20;;;2.07;;
6785;SDS011;3430;51.192;6.048;2023-08-30T13:53:49;3.53;;;2.20;;
6785;SDS011;3430;51.192;6.048;2023-08-30T13:56:15;2.63;;;1.83;;
6785;SDS011;3430;51.192;6.048;2023-08-30T13:58:41;2.40;;;2.20;;
6785;SDS011;3430;51.192;6.048;2023-08-30T14:01:07;2.37;;;2.17;;
6785;SDS011;3430;51.192;6.048;2023-08-30T14:03:32;2.33;;;2.03;;
6785;SDS011;3430;51.192;6.048;2023-08-30T14:05:58;2.33;;;1.83;;
6785;SDS011;3430;51.192;6.048;2023-08-30T14:08:24;2.20;;;2.00;;
6785;SDS011;3430;51.192;6.048;2023-08-30T14:10:50;1.80;;;1.70;;
6785;SDS011;3430;51.192;6.048;2023-08-30T14:13:19;3.50;;;2.00;;
6785;SDS011;3430;51.192;6.048;2023-08-30T14:15:47;2.43;;;1.73;;
6785;SDS011;3430;51.192;6.048;2023-08-30T14:18:13;2.13;;;1.93;;
6785;SDS011;3430;51.192;6.048;2023-08-30T14:20:40;3.27;;;1.90;;
6785;SDS011;3430;51.192;6.048;2023-08-30T14:23:06;2.13;;;1.77;;
6785;SDS011;3430;51.192;6.048;2023-08-30T14:25:31;2.77;;;2.20;;
6785;SDS011;3430;51.192;6.048;2023-08-30T14:27:57;3.03;;;1.73;;
6785;SDS011;3430;51.192;6.048;2023-08-30T14:30:22;3.40;;;2.10;;
6785;SDS011;3430;51.192;6.048;2023-08-30T14:32:48;2.10;;;1.93;;
6785;SDS011;3430;51.192;6.048;2023-08-30T14:35:13;4.20;;;2.07;;
6785;SDS011;3430;51.192;6.048;2023-08-30T14:37:38;2.63;;;2.40;;
6785;SDS011;3430;51.192;6.048;2023-08-30T14:40:08;2.17;;;1.97;;
6785;SDS011;3430;51.192;6.048;2023-08-30T14:42:33;2.10;;;1.70;;
6785;SDS011;3430;51.192;6.048;2023-08-30T14:44:59;2.47;;;2.13;;
6785;SDS011;3430;51.192;6.048;2023-08-30T14:47:24;3.53;;;2.10;;
6785;SDS011;3430;51.192;6.048;2023-08-30T14:49:50;2.60;;;2.10;;
6785;SDS011;3430;51.192;6.048;2023-08-30T14:52:15;2.40;;;2.20;;
6785;SDS011;3430;51.192;6.048;2023-08-30T14:54:44;1.90;;;1.80;;
6785;SDS011;3430;51.192;6.048;2023-08-30T14:57:09;2.83;;;1.90;;
6785;SDS011;3430;51.192;6.048;2023-08-30T14:59:35;2.70;;;2.03;;
6785;SDS011;3430;51.192;6.048;2023-08-30T15:02:00;2.53;;;2.23;;
6785;SDS011;3430;51.192;6.048;2023-08-30T15:04:26;2.13;;;1.80;;
6785;SDS011;3430;51.192;6.048;2023-08-30T15:06:52;3.00;;;1.97;;
6785;SDS011;3430;51.192;6.048;2023-08-30T15:09:17;2.20;;;2.00;;
6785;SDS011;3430;51.192;6.048;2023-08-30T15:11:43;1.87;;;1.77;;
6785;SDS011;3430;51.192;6.048;2023-08-30T15:14:09;4.40;;;2.40;;
6785;SDS011;3430;51.192;6.048;2023-08-30T15:16:35;2.47;;;1.97;;
6785;SDS011;3430;51.192;6.048;2023-08-30T15:19:01;2.00;;;1.80;;